createdAt,value
2018-09-21T00:00:45.543Z,99703.23
2018-09-21T00:03:13.259Z,99700.44
2018-09-21T00:05:41.008Z,99699.70
2018-09-21T00:08:08.726Z,99695.00
2018-09-21T00:10:36.466Z,99690.89
2018-09-21T00:13:04.190Z,99698.27
2018-09-21T00:15:31.901Z,99693.16
2018-09-21T00:17:59.648Z,99693.75
2018-09-21T00:20:27.384Z,99686.29
2018-09-21T00:22:55.378Z,99685.55
2018-09-21T00:25:23.060Z,99686.57
2018-09-21T00:27:50.763Z,99681.97
2018-09-21T00:30:18.473Z,99679.88
2018-09-21T00:32:46.204Z,99673.72
2018-09-21T00:35:13.975Z,99671.51
2018-09-21T00:37:41.974Z,99683.25
2018-09-21T00:40:09.755Z,99679.79
2018-09-21T00:42:37.466Z,99678.50
2018-09-21T00:45:05.334Z,99678.98
2018-09-21T00:47:33.046Z,99677.02
2018-09-21T00:50:00.756Z,99677.02
2018-09-21T00:52:28.504Z,99682.26
2018-09-21T00:54:56.238Z,99680.89
2018-09-21T00:57:24.018Z,99687.08
2018-09-21T00:59:51.793Z,99682.21
2018-09-21T01:02:19.578Z,99688.21
2018-09-21T01:04:47.282Z,99684.95
2018-09-21T01:07:15.242Z,99692.15
2018-09-21T01:09:43.411Z,99685.19
2018-09-21T01:12:11.126Z,99684.02
2018-09-21T01:14:39.032Z,99685.98
2018-09-21T01:17:06.762Z,99676.62
2018-09-21T01:19:34.591Z,99682.97
2018-09-21T01:22:02.955Z,99677.38
2018-09-21T01:24:30.707Z,99684.02
2018-09-21T01:26:58.435Z,99684.73
2018-09-21T01:29:26.135Z,99677.57
2018-09-21T01:31:53.818Z,99680.44
2018-09-21T01:34:21.549Z,99675.44
2018-09-21T01:36:49.267Z,99676.92
2018-09-21T01:39:16.964Z,99670.63
2018-09-21T01:41:48.227Z,99667.40
2018-09-21T01:44:16.034Z,99664.30
2018-09-21T01:46:44.059Z,99663.98
2018-09-21T01:49:11.742Z,99659.67
2018-09-21T01:51:39.484Z,99657.47
2018-09-21T01:54:07.193Z,99651.67
2018-09-21T01:56:34.906Z,99654.08
2018-09-21T01:59:02.785Z,99651.06
2018-09-21T02:01:30.490Z,99641.80
2018-09-21T02:03:58.213Z,99645.19
2018-09-21T02:06:25.953Z,99635.44
2018-09-21T02:08:53.638Z,99631.45
2018-09-21T02:11:21.363Z,99628.65
2018-09-21T02:13:49.056Z,99637.23
2018-09-21T02:16:16.785Z,99630.42
2018-09-21T02:18:44.451Z,99634.22
2018-09-21T02:21:12.174Z,99633.28
2018-09-21T02:23:39.858Z,99628.66
2018-09-21T02:26:07.566Z,99627.93
2018-09-21T02:28:35.286Z,99622.50
2018-09-21T02:31:03.071Z,99616.62
2018-09-21T02:33:30.760Z,99613.66
2018-09-21T02:35:58.439Z,99608.15
2018-09-21T02:38:26.146Z,99601.80
2018-09-21T02:40:54.262Z,99595.70
2018-09-21T02:43:22.022Z,99600.63
2018-09-21T02:45:49.746Z,99596.42
2018-09-21T02:48:17.457Z,99595.70
2018-09-21T02:50:45.176Z,99594.34
2018-09-21T02:53:12.952Z,99596.37
2018-09-21T02:55:40.652Z,99587.48
2018-09-21T02:58:08.468Z,99583.61
2018-09-21T03:00:36.389Z,99580.75
2018-09-21T03:06:09.736Z,99579.63
2018-09-21T03:08:37.457Z,99570.73
2018-09-21T03:11:05.283Z,99570.15
2018-09-21T03:13:32.953Z,99574.23
2018-09-21T03:16:00.738Z,99569.41
2018-09-21T03:18:28.452Z,99572.59
2018-09-21T03:20:56.146Z,99573.52
2018-09-21T03:23:30.606Z,99579.11
2018-09-21T03:25:58.343Z,99582.37
2018-09-21T03:28:26.067Z,99572.38
2018-09-21T03:30:54.050Z,99570.41
2018-09-21T03:33:21.771Z,99573.86
2018-09-21T03:35:49.524Z,99569.02
2018-09-21T03:38:17.278Z,99573.00
2018-09-21T03:40:44.986Z,99565.72
2018-09-21T03:43:12.760Z,99561.52
2018-09-21T03:45:40.962Z,99547.84
2018-09-21T03:48:08.654Z,99547.09
2018-09-21T03:50:36.341Z,99546.37
2018-09-21T03:53:04.080Z,99542.55
2018-09-21T03:55:31.817Z,99538.52
2018-09-21T03:57:59.523Z,99542.83
2018-09-21T04:00:27.251Z,99543.63
2018-09-21T04:02:55.387Z,99541.69
2018-09-21T04:05:23.166Z,99547.09
2018-09-21T04:07:50.904Z,99547.33
2018-09-21T04:10:18.627Z,99540.45
2018-09-21T04:12:46.352Z,99537.95
2018-09-21T04:15:14.067Z,99540.39
2018-09-21T04:17:41.798Z,99538.12
2018-09-21T04:20:09.540Z,99542.03
2018-09-21T04:22:37.616Z,99550.50
2018-09-21T04:25:06.213Z,99551.77
2018-09-21T04:27:33.943Z,99556.48
2018-09-21T04:30:01.706Z,99551.48
2018-09-21T04:32:29.459Z,99554.41
2018-09-21T04:34:58.147Z,99554.36
2018-09-21T04:37:25.931Z,99557.80
2018-09-21T04:39:53.632Z,99548.71
2018-09-21T04:42:21.315Z,99547.52
2018-09-21T04:44:52.779Z,99537.52
2018-09-21T04:47:20.606Z,99543.99
2018-09-21T04:49:48.310Z,99541.72
2018-09-21T04:52:50.868Z,99536.80
2018-09-21T04:55:22.323Z,99533.55
2018-09-21T04:57:50.039Z,99532.68
2018-09-21T05:00:17.760Z,99531.09
2018-09-21T05:02:45.534Z,99538.14
2018-09-21T05:05:13.319Z,99526.61
2018-09-21T05:07:41.072Z,99526.52
2018-09-21T05:10:08.810Z,99517.61
2018-09-21T05:12:36.614Z,99513.20
2018-09-21T05:15:05.051Z,99513.34
2018-09-21T05:17:32.903Z,99516.66
2018-09-21T05:20:00.778Z,99519.08
2018-09-21T05:22:28.461Z,99514.06
2018-09-21T05:24:56.281Z,99514.53
2018-09-21T05:27:24.068Z,99518.47
2018-09-21T05:29:51.798Z,99517.38
2018-09-21T05:32:19.499Z,99518.41
2018-09-21T05:34:47.322Z,99515.45
2018-09-21T05:37:15.283Z,99517.00
2018-09-21T05:39:43.026Z,99516.42
2018-09-21T05:42:10.695Z,99510.47
2018-09-21T05:44:38.466Z,99509.44
2018-09-21T05:47:09.695Z,99515.48
2018-09-21T05:49:37.373Z,99509.06
2018-09-21T05:52:05.084Z,99509.78
2018-09-21T05:54:32.842Z,99512.80
2018-09-21T05:57:00.638Z,99506.89
2018-09-21T05:59:28.466Z,99501.88
2018-09-21T06:01:56.233Z,99502.98
2018-09-21T06:04:23.963Z,99507.18
2018-09-21T06:06:51.637Z,99516.35
2018-09-21T06:09:19.684Z,99513.37
2018-09-21T06:11:47.443Z,99512.86
2018-09-21T06:14:15.206Z,99511.91
2018-09-21T06:16:43.022Z,99503.66
2018-09-21T06:19:10.734Z,99511.41
2018-09-21T06:21:38.453Z,99504.83
2018-09-21T06:24:06.158Z,99503.29
2018-09-21T06:26:34.275Z,99492.98
2018-09-21T06:29:02.134Z,99495.69
2018-09-21T06:31:29.883Z,99496.33
2018-09-21T06:33:57.594Z,99488.78
2018-09-21T06:36:25.607Z,99493.48
2018-09-21T06:38:53.283Z,99491.14
2018-09-21T06:41:21.002Z,99489.23
2018-09-21T06:43:48.768Z,99490.80
2018-09-21T06:46:16.474Z,99486.12
2018-09-21T06:48:44.292Z,99486.61
2018-09-21T06:51:12.069Z,99485.98
2018-09-21T06:53:39.814Z,99483.56
2018-09-21T06:56:07.547Z,99481.78
2018-09-21T06:58:35.227Z,99478.45
2018-09-21T07:01:02.973Z,99473.46
2018-09-21T07:03:34.023Z,99461.75
2018-09-21T07:06:01.774Z,99470.67
2018-09-21T07:08:29.487Z,99471.86
2018-09-21T07:10:57.207Z,99472.69
2018-09-21T07:13:24.913Z,99466.75
2018-09-21T07:15:52.661Z,99464.12
2018-09-21T07:18:20.427Z,99471.55
2018-09-21T07:20:48.114Z,99475.81
2018-09-21T07:23:15.842Z,99474.56
2018-09-21T07:25:43.563Z,99474.84
2018-09-21T07:28:11.271Z,99482.39
2018-09-21T07:30:38.983Z,99479.34
2018-09-21T07:33:06.737Z,99483.50
2018-09-21T07:35:34.448Z,99487.14
2018-09-21T07:38:02.173Z,99483.06
2018-09-21T07:40:29.905Z,99481.98
2018-09-21T07:42:57.682Z,99487.56
2018-09-21T07:45:25.376Z,99485.81
2018-09-21T07:47:53.070Z,99485.73
2018-09-21T07:50:20.824Z,99484.66
2018-09-21T07:52:48.524Z,99476.88
2018-09-21T07:55:16.658Z,99481.53
2018-09-21T07:57:44.447Z,99486.68
2018-09-21T08:00:12.288Z,99489.45
2018-09-21T08:02:40.027Z,99488.67
2018-09-21T08:05:07.833Z,99494.86
2018-09-21T08:07:35.497Z,99493.50
2018-09-21T08:10:03.714Z,99496.94
2018-09-21T08:12:31.495Z,99496.63
2018-09-21T08:14:59.391Z,99497.98
2018-09-21T08:17:27.132Z,99503.05
2018-09-21T08:19:55.064Z,99506.77
2018-09-21T08:22:22.844Z,99516.70
2018-09-21T08:24:50.649Z,99509.66
2018-09-21T08:27:19.094Z,99505.78
2018-09-21T08:29:47.369Z,99496.73
2018-09-21T08:32:15.091Z,99491.19
2018-09-21T08:34:43.071Z,99498.91
2018-09-21T08:37:11.239Z,99497.09
2018-09-21T08:39:38.895Z,99494.70
2018-09-21T08:42:06.646Z,99491.73
2018-09-21T08:44:34.451Z,99496.80
2018-09-21T08:47:05.384Z,99490.95
2018-09-21T08:49:33.150Z,99485.98
2018-09-21T08:52:00.895Z,99484.84
2018-09-21T08:54:28.682Z,99479.41
2018-09-21T08:56:56.615Z,99483.76
2018-09-21T08:59:24.634Z,99488.37
2018-09-21T09:01:52.463Z,99486.86
2018-09-21T09:04:20.174Z,99485.57
2018-09-21T09:06:47.931Z,99485.85
2018-09-21T09:09:15.810Z,99489.06
2018-09-21T09:11:44.128Z,99490.95
2018-09-21T09:14:11.831Z,99491.89
2018-09-21T09:16:39.525Z,99483.31
2018-09-21T09:19:07.226Z,99486.45
2018-09-21T09:21:34.982Z,99482.97
2018-09-21T09:24:02.694Z,99485.34
2018-09-21T09:29:10.335Z,99481.71
2018-09-21T09:31:38.267Z,99486.79
2018-09-21T09:34:06.144Z,99490.10
2018-09-21T09:36:33.876Z,99499.17
2018-09-21T09:39:01.616Z,99500.88
2018-09-21T09:41:29.665Z,99491.52
2018-09-21T09:43:57.771Z,99483.28
2018-09-21T09:46:25.500Z,99476.18
2018-09-21T09:48:53.254Z,99458.10
2018-09-21T09:51:21.023Z,99463.02
2018-09-21T09:53:48.801Z,99452.31
2018-09-21T09:56:16.551Z,99467.23
2018-09-21T09:58:45.688Z,99463.12
2018-09-21T10:01:13.411Z,99459.80
2018-09-21T10:03:41.278Z,99456.44
2018-09-21T10:06:09.071Z,99455.14
2018-09-21T10:08:36.805Z,99465.24
2018-09-21T10:11:05.613Z,99458.91
2018-09-21T10:13:36.504Z,99452.50
2018-09-21T10:16:04.421Z,99449.20
2018-09-21T10:18:32.152Z,99447.32
2018-09-21T10:20:59.892Z,99440.60
2018-09-21T10:23:27.835Z,99453.69
2018-09-21T10:25:55.638Z,99465.77
2018-09-21T10:28:23.675Z,99465.97
2018-09-21T10:30:51.324Z,99463.03
2018-09-21T10:33:19.253Z,99464.48
2018-09-21T10:35:47.035Z,99472.84
2018-09-21T10:38:14.777Z,99471.59
2018-09-21T10:40:42.474Z,99462.08
2018-09-21T10:43:10.297Z,99462.23
2018-09-21T10:45:37.994Z,99457.84
2018-09-21T10:48:05.735Z,99468.30
2018-09-21T10:50:33.427Z,99473.42
2018-09-21T10:53:01.173Z,99473.13
2018-09-21T10:55:29.235Z,99475.87
2018-09-21T10:57:56.943Z,99478.05
2018-09-21T11:00:24.662Z,99473.22
2018-09-21T11:02:52.496Z,99470.78
2018-09-21T11:05:20.203Z,99461.84
2018-09-21T11:07:47.932Z,99456.78
2018-09-21T11:10:15.651Z,99451.23
2018-09-21T11:12:43.375Z,99454.77
2018-09-21T11:15:11.087Z,99452.58
2018-09-21T11:17:38.804Z,99445.72
2018-09-21T11:20:06.532Z,99446.27
2018-09-21T11:22:34.621Z,99460.40
2018-09-21T11:25:02.419Z,99461.20
2018-09-21T11:27:30.299Z,99454.16
2018-09-21T11:29:58.007Z,99454.80
2018-09-21T11:32:25.718Z,99461.51
2018-09-21T11:34:53.426Z,99457.23
2018-09-21T11:37:21.163Z,99455.34
2018-09-21T11:39:48.964Z,99458.72
2018-09-21T11:42:16.649Z,99466.35
2018-09-21T11:44:44.355Z,99467.45
2018-09-21T11:47:15.637Z,99473.88
2018-09-21T11:49:43.238Z,99475.52
2018-09-21T11:52:11.175Z,99474.14
2018-09-21T11:54:38.934Z,99481.34
2018-09-21T11:57:07.241Z,99472.38
2018-09-21T11:59:35.052Z,99464.43
2018-09-21T12:02:02.815Z,99462.62
2018-09-21T12:04:30.712Z,99462.62
2018-09-21T12:06:58.524Z,99468.79
2018-09-21T12:09:26.499Z,99465.44
2018-09-21T12:11:54.256Z,99463.98
2018-09-21T12:14:21.963Z,99472.34
2018-09-21T12:16:49.780Z,99468.36
2018-09-21T12:19:21.451Z,99468.68
2018-09-21T12:21:49.163Z,99465.66
2018-09-21T12:24:16.936Z,99465.88
2018-09-21T12:26:44.675Z,99478.05
2018-09-21T12:29:12.488Z,99459.63
2018-09-21T12:31:40.217Z,99464.32
2018-09-21T12:34:07.944Z,99466.67
2018-09-21T12:36:35.768Z,99466.95
2018-09-21T12:39:07.042Z,99455.50
2018-09-21T12:41:34.891Z,99463.97
2018-09-21T12:44:02.728Z,99463.79
2018-09-21T12:46:30.782Z,99464.12
2018-09-21T12:49:05.079Z,99452.98
2018-09-21T12:51:33.986Z,99447.11
2018-09-21T12:54:01.959Z,99453.57
2018-09-21T12:56:29.803Z,99451.82
2018-09-21T12:58:57.722Z,99447.08
2018-09-21T13:01:25.383Z,99448.38
2018-09-21T13:03:53.139Z,99445.19
2018-09-21T13:06:20.877Z,99442.27
2018-09-21T13:08:48.607Z,99437.58
2018-09-21T13:11:16.517Z,99430.53
2018-09-21T13:13:44.272Z,99414.17
2018-09-21T13:16:12.146Z,99399.20
2018-09-21T13:18:40.159Z,99385.66
2018-09-21T13:21:08.291Z,99390.70
2018-09-21T13:23:36.114Z,99394.38
2018-09-21T13:26:03.843Z,99405.38
2018-09-21T13:28:31.646Z,99425.33
2018-09-21T13:30:59.470Z,99455.36
2018-09-21T13:33:27.232Z,99465.33
2018-09-21T13:35:55.035Z,99461.96
2018-09-21T13:38:22.838Z,99467.62
2018-09-21T13:40:50.634Z,99475.00
2018-09-21T13:43:18.377Z,99471.00
2018-09-21T13:45:46.107Z,99481.78
2018-09-21T13:48:13.899Z,99477.77
2018-09-21T13:50:45.663Z,99473.20
2018-09-21T13:53:13.378Z,99459.34
2018-09-21T13:55:41.073Z,99454.26
2018-09-21T13:58:08.821Z,99465.02
2018-09-21T14:00:36.565Z,99467.89
2018-09-21T14:03:04.324Z,99479.91
2018-09-21T14:05:32.243Z,99485.55
2018-09-21T14:08:00.000Z,99493.85
2018-09-21T14:10:27.827Z,99508.32
2018-09-21T14:12:55.671Z,99484.60
2018-09-21T14:15:23.524Z,99480.65
2018-09-21T14:17:51.471Z,99495.45
2018-09-21T14:20:19.371Z,99514.49
2018-09-21T14:22:47.105Z,99534.06
2018-09-21T14:25:14.926Z,99535.45
2018-09-21T14:27:42.610Z,99549.89
2018-09-21T14:30:10.355Z,99559.03
2018-09-21T14:32:38.352Z,99575.13
2018-09-21T14:35:06.933Z,99612.39
2018-09-21T14:37:34.751Z,99633.95
2018-09-21T14:40:02.714Z,99660.01
2018-09-21T14:42:30.507Z,99682.48
2018-09-21T14:44:58.371Z,99687.57
2018-09-21T14:47:26.135Z,99699.05
2018-09-21T14:49:53.868Z,99730.59
2018-09-21T14:52:21.669Z,99729.21
2018-09-21T14:54:49.461Z,99776.42
2018-09-21T14:57:17.181Z,99773.02
2018-09-21T14:59:45.014Z,99784.31
2018-09-21T15:02:12.709Z,99824.56
2018-09-21T15:04:40.446Z,99852.42
2018-09-21T15:07:08.164Z,99860.95
2018-09-21T15:09:35.886Z,99893.64
2018-09-21T15:12:03.719Z,99890.55
2018-09-21T15:14:31.659Z,99908.92
2018-09-21T15:16:59.454Z,99919.86
2018-09-21T15:19:27.277Z,99919.57
2018-09-21T15:21:55.043Z,99916.87
2018-09-21T15:24:22.759Z,99909.34
2018-09-21T15:29:53.779Z,99960.07
2018-09-21T15:32:21.644Z,99976.77
2018-09-21T15:34:49.379Z,99993.03
2018-09-21T15:37:17.107Z,99990.73
2018-09-21T15:39:44.811Z,99999.92
2018-09-21T15:42:12.542Z,99995.72
2018-09-21T15:44:40.633Z,100011.94
2018-09-21T15:47:08.457Z,100018.62
2018-09-21T15:49:36.178Z,100029.14
2018-09-21T15:52:04.771Z,100032.84
2018-09-21T15:54:32.499Z,100032.37
2018-09-21T15:57:00.358Z,100030.47
2018-09-21T15:59:28.459Z,100027.53
2018-09-21T16:01:56.185Z,100045.83
2018-09-21T16:04:23.958Z,100059.07
2018-09-21T16:06:51.746Z,100055.11
2018-09-21T16:09:19.540Z,100051.86
2018-09-21T16:11:47.246Z,100077.30
2018-09-21T16:14:15.279Z,100056.27
2018-09-21T16:16:42.936Z,100049.83
2018-09-21T16:19:10.664Z,100067.75
2018-09-21T16:21:38.422Z,100074.95
2018-09-21T16:24:06.445Z,100065.62
2018-09-21T16:26:34.487Z,100075.30
2018-09-21T16:29:02.271Z,100082.71
2018-09-21T16:31:30.697Z,100079.24
2018-09-21T16:33:58.576Z,100085.33
2018-09-21T16:36:26.347Z,100107.66
2018-09-21T16:38:54.044Z,100108.08
2018-09-21T16:41:21.833Z,100116.89
2018-09-21T16:43:49.471Z,100106.30
2018-09-21T16:46:17.215Z,100104.09
2018-09-21T16:48:44.926Z,100105.95
2018-09-21T16:51:12.710Z,100117.41
2018-09-21T16:53:40.370Z,100116.16
2018-09-21T16:56:08.103Z,100119.81
2018-09-21T16:58:35.779Z,100133.62
2018-09-21T17:01:03.623Z,100133.93
2018-09-21T17:03:31.320Z,100146.09
2018-09-21T17:05:59.072Z,100148.97
2018-09-21T17:08:26.746Z,100152.89
2018-09-21T17:10:54.455Z,100158.94
2018-09-21T17:13:22.189Z,100162.29
2018-09-21T17:15:49.962Z,100168.84
2018-09-21T17:18:17.771Z,100162.39
2018-09-21T17:20:45.766Z,100171.94
2018-09-21T17:23:13.467Z,100173.70
2018-09-21T17:25:41.246Z,100157.78
2018-09-21T17:28:08.982Z,100165.19
2018-09-21T17:30:36.757Z,100166.05
2018-09-21T17:33:04.911Z,100168.69
2018-09-21T17:35:32.630Z,100183.40
2018-09-21T17:38:00.311Z,100194.72
2018-09-21T17:40:28.042Z,100203.52
2018-09-21T17:42:55.718Z,100210.88
2018-09-21T17:45:23.787Z,100213.20
2018-09-21T17:47:51.511Z,100212.94
2018-09-21T17:50:19.427Z,100215.23
2018-09-21T17:52:47.214Z,100214.11
2018-09-21T17:55:14.868Z,100212.54
2018-09-21T17:57:42.715Z,100211.56
2018-09-21T18:00:10.444Z,100218.27
2018-09-21T18:02:38.158Z,100227.27
2018-09-21T18:05:06.046Z,100232.09
2018-09-21T18:07:33.914Z,100240.52
2018-09-21T18:10:01.739Z,100249.83
2018-09-21T18:12:29.590Z,100249.25
2018-09-21T18:14:57.294Z,100252.02
2018-09-21T18:17:25.059Z,100254.09
2018-09-21T18:19:52.811Z,100262.80
2018-09-21T18:22:20.623Z,100264.00
2018-09-21T18:24:48.368Z,100278.42
2018-09-21T18:27:16.099Z,100280.05
2018-09-21T18:29:43.925Z,100287.87
2018-09-21T18:32:11.642Z,100289.70
2018-09-21T18:34:39.351Z,100293.58
2018-09-21T18:37:07.087Z,100302.67
2018-09-21T18:39:34.894Z,100307.67
2018-09-21T18:42:02.707Z,100303.91
2018-09-21T18:44:30.460Z,100314.48
2018-09-21T18:46:58.210Z,100309.45
2018-09-21T18:49:26.030Z,100316.03
2018-09-21T18:51:53.809Z,100320.91
2018-09-21T18:54:21.555Z,100327.14
2018-09-21T18:56:49.307Z,100322.72
2018-09-21T18:59:17.122Z,100327.67
2018-09-21T19:01:44.947Z,100326.80
2018-09-21T19:04:12.795Z,100318.59
2018-09-21T19:06:40.573Z,100326.68
2018-09-21T19:09:10.432Z,100320.94
2018-09-21T19:11:38.403Z,100330.16
2018-09-21T19:14:06.350Z,100344.80
2018-09-21T19:16:34.073Z,100346.74
2018-09-21T19:19:01.947Z,100356.96
2018-09-21T19:21:29.767Z,100378.05
2018-09-21T19:23:57.461Z,100388.58
2018-09-21T19:26:25.512Z,100373.66
2018-09-21T19:28:53.295Z,100392.91
2018-09-21T19:31:21.122Z,100403.31
2018-09-21T19:33:48.910Z,100402.64
2018-09-21T19:36:16.743Z,100401.89
2018-09-21T19:38:44.761Z,100408.97
2018-09-21T19:41:12.424Z,100399.02
2018-09-21T19:43:40.152Z,100407.80
2018-09-21T19:46:07.871Z,100408.12
2018-09-21T19:48:35.625Z,100411.91
2018-09-21T19:51:03.434Z,100407.36
2018-09-21T19:53:31.297Z,100413.44
2018-09-21T19:55:59.155Z,100407.86
2018-09-21T19:58:26.871Z,100407.55
2018-09-21T20:00:54.663Z,100411.31
2018-09-21T20:03:22.669Z,100415.59
2018-09-21T20:05:50.573Z,100410.83
2018-09-21T20:08:18.342Z,100413.02
2018-09-21T20:10:46.112Z,100426.31
2018-09-21T20:13:13.971Z,100425.67
2018-09-21T20:15:41.710Z,100426.60
2018-09-21T20:18:09.451Z,100428.49
2018-09-21T20:20:37.167Z,100437.20
2018-09-21T20:23:05.333Z,100445.75
2018-09-21T20:25:33.019Z,100444.47
2018-09-21T20:28:00.771Z,100440.02
2018-09-21T20:30:34.287Z,100441.84
2018-09-21T20:33:07.886Z,100434.77
2018-09-21T20:35:35.980Z,100437.20
2018-09-21T20:38:03.667Z,100444.63
2018-09-21T20:41:10.866Z,100455.81
2018-09-21T20:43:43.478Z,100469.78
2018-09-21T20:46:11.262Z,100472.60
2018-09-21T20:48:39.115Z,100471.78
2018-09-21T20:51:06.986Z,100482.31
2018-09-21T20:53:34.908Z,100480.00
2018-09-21T20:56:27.798Z,100480.17
2018-09-21T20:58:58.017Z,100481.31
2018-09-21T21:01:25.848Z,100489.03
2018-09-21T21:03:53.775Z,100494.02
2018-09-21T21:06:21.454Z,100493.84
2018-09-21T21:08:49.298Z,100495.95
2018-09-21T21:11:17.047Z,100511.06
2018-09-21T21:13:45.249Z,100502.05
2018-09-21T21:16:13.045Z,100513.39
2018-09-21T21:18:40.801Z,100521.60
2018-09-21T21:21:09.344Z,100507.80
2018-09-21T21:23:37.123Z,100521.75
2018-09-21T21:26:04.953Z,100518.95
2018-09-21T21:28:32.763Z,100521.09
2018-09-21T21:31:00.707Z,100519.77
2018-09-21T21:33:28.523Z,100516.83
2018-09-21T21:35:56.618Z,100514.70
2018-09-21T21:38:24.770Z,100514.19
2018-09-21T21:40:52.946Z,100525.87
2018-09-21T21:43:20.986Z,100528.52
2018-09-21T21:45:48.897Z,100543.95
2018-09-21T21:48:16.907Z,100541.53
2018-09-21T21:50:44.759Z,100539.20
2018-09-21T21:53:12.868Z,100538.57
2018-09-21T21:55:40.711Z,100544.14
2018-09-21T21:58:08.595Z,100535.74
2018-09-21T22:00:42.373Z,100554.17
2018-09-21T22:03:10.491Z,100564.70
2018-09-21T22:05:38.316Z,100572.09
2018-09-21T22:08:06.128Z,100572.27
2018-09-21T22:10:33.907Z,100581.34
2018-09-21T22:13:07.633Z,100572.28
2018-09-21T22:15:35.446Z,100577.91
2018-09-21T22:18:03.202Z,100575.95
2018-09-21T22:20:30.960Z,100585.21
2018-09-21T22:22:58.722Z,100579.73
2018-09-21T22:25:26.491Z,100566.20
2018-09-21T22:27:54.442Z,100580.68
2018-09-21T22:30:22.179Z,100583.31
2018-09-21T22:32:49.975Z,100578.36
2018-09-21T22:35:17.674Z,100574.05
2018-09-21T22:37:46.801Z,100576.69
2018-09-21T22:40:14.751Z,100587.26
2018-09-21T22:42:42.508Z,100585.77
2018-09-21T22:45:10.348Z,100589.42
2018-09-21T22:47:38.086Z,100588.75
2018-09-21T22:50:06.025Z,100601.22
2018-09-21T22:52:33.799Z,100608.49
2018-09-21T22:55:01.756Z,100605.58
2018-09-21T22:57:29.602Z,100601.31
2018-09-21T22:59:57.423Z,100598.37
2018-09-21T23:02:25.164Z,100598.72
2018-09-21T23:04:52.985Z,100606.61
2018-09-21T23:07:20.763Z,100602.20
2018-09-21T23:09:48.961Z,100604.30
2018-09-21T23:12:16.792Z,100603.81
2018-09-21T23:14:44.546Z,100594.45
2018-09-21T23:17:12.665Z,100603.17
2018-09-21T23:19:40.537Z,100605.80
2018-09-21T23:22:12.058Z,100604.98
2018-09-21T23:24:39.864Z,100596.27
2018-09-21T23:27:07.746Z,100609.42
2018-09-21T23:29:35.588Z,100603.52
2018-09-21T23:32:03.355Z,100611.59
2018-09-21T23:34:31.141Z,100608.45
2018-09-21T23:36:58.905Z,100611.91
2018-09-21T23:39:26.755Z,100622.45
2018-09-21T23:41:54.625Z,100622.45
2018-09-21T23:44:22.394Z,100626.39
2018-09-21T23:46:50.203Z,100630.34
2018-09-21T23:49:18.048Z,100636.24
2018-09-21T23:51:45.883Z,100641.18
2018-09-21T23:54:13.719Z,100649.06
2018-09-21T23:56:41.548Z,100646.45
2018-09-21T23:59:16.052Z,100644.33
